createdAt,value
2023-01-22T00:01:44.692Z,65.35
2023-01-22T00:04:56.867Z,59.05
2023-01-22T00:08:09.181Z,59.00
2023-01-22T00:11:22.730Z,63.33
2023-01-22T00:14:34.801Z,62.78
2023-01-22T00:17:46.827Z,62.00
2023-01-22T00:21:00.549Z,60.95
2023-01-22T00:24:14.307Z,59.55
2023-01-22T00:27:26.310Z,56.45
2023-01-22T00:30:38.365Z,55.83
2023-01-22T00:33:52.277Z,57.88
2023-01-22T00:37:04.797Z,59.05
2023-01-22T00:40:20.245Z,58.33
2023-01-22T00:43:33.599Z,56.20
2023-01-22T00:46:45.962Z,50.38
2023-01-22T00:49:57.984Z,49.73
2023-01-22T00:53:09.855Z,52.20
2023-01-22T00:56:23.047Z,53.63
2023-01-22T00:59:35.476Z,57.78
2023-01-22T01:02:59.014Z,52.10
2023-01-22T01:06:15.036Z,54.50
2023-01-22T01:09:27.213Z,55.13
2023-01-22T01:12:39.223Z,51.38
2023-01-22T01:15:51.258Z,48.98
2023-01-22T01:19:06.384Z,49.93
2023-01-22T01:22:18.300Z,51.80
2023-01-22T01:25:30.255Z,48.50
2023-01-22T01:28:45.867Z,52.73
2023-01-22T01:31:58.080Z,46.88
2023-01-22T01:35:11.570Z,45.18
2023-01-22T01:38:24.671Z,53.35
2023-01-22T01:41:36.804Z,51.75
2023-01-22T01:44:52.861Z,50.63
2023-01-22T01:48:15.221Z,51.90
2023-01-22T01:51:32.119Z,49.80
2023-01-22T01:54:46.069Z,47.85
2023-01-22T01:57:59.706Z,45.85
2023-01-22T02:01:17.446Z,48.48
2023-01-22T02:04:29.997Z,49.18
2023-01-22T02:07:42.474Z,50.13
2023-01-22T02:10:54.608Z,46.60
2023-01-22T02:14:12.470Z,46.15
2023-01-22T02:17:27.695Z,49.63
2023-01-22T02:20:42.769Z,49.75
2023-01-22T02:23:54.972Z,49.30
2023-01-22T02:27:06.798Z,47.65
2023-01-22T02:30:21.638Z,44.93
2023-01-22T02:33:33.697Z,44.18
2023-01-22T02:36:47.643Z,43.13
2023-01-22T02:40:00.318Z,45.15
2023-01-22T02:43:12.310Z,45.90
2023-01-22T02:46:27.296Z,41.38
2023-01-22T02:49:39.486Z,39.90
2023-01-22T02:52:51.792Z,37.60
2023-01-22T02:56:04.147Z,38.00
2023-01-22T02:59:16.841Z,33.98
2023-01-22T03:02:29.071Z,36.38
2023-01-22T03:05:42.156Z,38.65
2023-01-22T03:08:54.881Z,32.00
2023-01-22T03:12:07.292Z,32.95
2023-01-22T03:15:35.808Z,36.95
2023-01-22T03:19:03.104Z,35.13
2023-01-22T03:22:15.817Z,33.43
2023-01-22T03:25:28.063Z,32.35
2023-01-22T03:28:40.487Z,30.20
2023-01-22T03:31:52.853Z,33.50
2023-01-22T03:35:05.910Z,31.90
2023-01-22T03:38:19.854Z,30.23
2023-01-22T03:41:32.108Z,31.63
2023-01-22T03:44:44.270Z,31.68
2023-01-22T03:47:57.502Z,31.53
2023-01-22T03:51:19.497Z,28.90
2023-01-22T03:54:31.754Z,34.03
2023-01-22T03:57:45.096Z,33.43
2023-01-22T04:00:58.417Z,34.50
2023-01-22T04:04:12.372Z,30.08
2023-01-22T04:07:26.362Z,29.90
2023-01-22T04:10:38.441Z,26.45
2023-01-22T04:13:51.742Z,31.05
2023-01-22T04:17:05.591Z,28.53
2023-01-22T04:20:34.909Z,29.95
2023-01-22T04:24:04.129Z,27.48
2023-01-22T04:27:17.250Z,27.78
2023-01-22T04:30:31.253Z,29.40
2023-01-22T04:33:45.421Z,25.73
2023-01-22T04:37:02.143Z,26.48
2023-01-22T04:40:20.431Z,25.25
2023-01-22T04:43:33.933Z,26.58
2023-01-22T04:46:47.771Z,28.45
2023-01-22T04:49:59.885Z,24.75
2023-01-22T04:53:12.502Z,25.95
2023-01-22T04:56:24.865Z,25.63
2023-01-22T04:59:38.552Z,24.85
2023-01-22T05:02:51.445Z,24.23
2023-01-22T05:06:08.307Z,30.30
2023-01-22T05:09:22.830Z,26.00
2023-01-22T05:12:36.875Z,27.25
2023-01-22T05:15:49.002Z,25.35
2023-01-22T05:19:02.362Z,22.33
2023-01-22T05:22:16.404Z,23.75
2023-01-22T05:25:28.490Z,23.25
2023-01-22T05:28:42.264Z,25.18
2023-01-22T05:31:56.294Z,25.70
2023-01-22T05:35:17.464Z,25.70
2023-01-22T05:38:31.349Z,22.83
2023-01-22T05:41:43.831Z,23.98
2023-01-22T05:44:57.091Z,21.58
2023-01-22T05:48:11.043Z,24.40
2023-01-22T05:51:29.293Z,24.08
2023-01-22T05:54:43.881Z,23.85
2023-01-22T05:57:56.051Z,20.63
2023-01-22T06:01:09.415Z,22.80
2023-01-22T06:04:25.318Z,19.78
2023-01-22T06:07:39.021Z,20.85
2023-01-22T06:10:50.964Z,24.00
2023-01-22T06:14:04.268Z,23.30
2023-01-22T06:17:17.899Z,23.10
2023-01-22T06:20:32.264Z,22.88
2023-01-22T06:23:45.381Z,19.95
2023-01-22T06:26:58.303Z,21.95
2023-01-22T06:30:18.148Z,23.50
2023-01-22T06:33:30.919Z,22.70
2023-01-22T06:36:43.638Z,20.10
2023-01-22T06:39:56.464Z,20.52
2023-01-22T06:43:19.306Z,21.03
2023-01-22T06:46:33.825Z,20.83
2023-01-22T06:49:47.706Z,20.08
2023-01-22T06:52:59.686Z,21.10
2023-01-22T06:56:13.759Z,18.18
2023-01-22T06:59:26.186Z,19.78
2023-01-22T07:02:38.314Z,18.20
2023-01-22T07:05:50.415Z,18.45
2023-01-22T07:09:02.897Z,20.88
2023-01-22T07:12:15.324Z,31.58
2023-01-22T07:15:27.407Z,183.10
2023-01-22T07:18:39.314Z,74.33
2023-01-22T07:21:51.319Z,20.95
2023-01-22T07:25:03.450Z,18.58
2023-01-22T07:28:17.211Z,19.35
2023-01-22T07:31:29.335Z,18.90
2023-01-22T07:34:41.576Z,16.15
2023-01-22T07:37:59.224Z,16.60
2023-01-22T07:41:25.079Z,17.33
2023-01-22T07:44:27.176Z,15.88
2023-01-22T07:47:39.310Z,16.90
2023-01-22T07:50:51.491Z,16.20
2023-01-22T07:54:03.488Z,16.75
2023-01-22T07:57:16.854Z,16.75
2023-01-22T08:00:30.015Z,17.45
2023-01-22T08:03:42.507Z,16.55
2023-01-22T08:06:54.703Z,16.93
2023-01-22T08:10:07.124Z,16.53
2023-01-22T08:13:19.255Z,18.65
2023-01-22T08:16:31.341Z,18.50
2023-01-22T08:19:43.668Z,56.25
2023-01-22T08:22:56.041Z,43.28
2023-01-22T08:26:09.742Z,17.90
2023-01-22T08:29:21.928Z,22.70
2023-01-22T08:32:34.776Z,19.10
2023-01-22T08:35:47.973Z,20.45
2023-01-22T08:39:00.671Z,19.75
2023-01-22T08:42:12.950Z,19.53
2023-01-22T08:45:25.743Z,20.20
2023-01-22T08:48:40.046Z,18.10
2023-01-22T08:51:53.036Z,20.78
2023-01-22T08:55:06.825Z,19.63
2023-01-22T08:58:20.567Z,22.18
2023-01-22T09:01:32.553Z,20.58
2023-01-22T09:04:45.279Z,17.63
2023-01-22T09:07:57.379Z,19.60
2023-01-22T09:11:11.501Z,19.83
2023-01-22T09:14:23.971Z,19.88
2023-01-22T09:17:36.456Z,16.93
2023-01-22T09:20:50.824Z,17.35
2023-01-22T09:24:02.974Z,16.58
2023-01-22T09:27:15.136Z,19.38
2023-01-22T09:30:27.621Z,22.00
2023-01-22T09:33:39.781Z,18.85
2023-01-22T09:36:52.256Z,18.78
2023-01-22T09:40:04.464Z,17.50
2023-01-22T09:43:29.064Z,19.80
2023-01-22T09:46:47.797Z,119.15
2023-01-22T09:50:04.790Z,24.65
2023-01-22T09:56:36.757Z,22.38
2023-01-22T09:59:55.564Z,20.23
2023-01-22T10:03:11.802Z,21.28
2023-01-22T10:06:29.886Z,21.17
2023-01-22T10:09:42.986Z,18.55
2023-01-22T10:13:02.459Z,19.70
2023-01-22T10:16:16.311Z,18.65
2023-01-22T10:19:33.913Z,22.23
2023-01-22T10:22:48.737Z,18.60
2023-01-22T10:26:05.350Z,22.20
2023-01-22T10:29:23.305Z,20.03
2023-01-22T10:32:37.112Z,18.55
2023-01-22T10:35:53.348Z,20.08
2023-01-22T10:39:17.288Z,19.63
2023-01-22T10:42:33.691Z,27.18
2023-01-22T10:45:56.255Z,23.60
2023-01-22T10:49:10.265Z,25.60
2023-01-22T10:52:31.737Z,25.10
2023-01-22T10:55:48.193Z,24.58
2023-01-22T10:59:01.121Z,26.58
2023-01-22T11:02:22.766Z,26.13
2023-01-22T11:05:39.654Z,28.53
2023-01-22T11:08:58.027Z,26.40
2023-01-22T11:12:16.979Z,27.28
2023-01-22T11:15:37.136Z,29.20
2023-01-22T11:18:56.150Z,24.85
2023-01-22T11:22:14.421Z,32.00
2023-01-22T11:25:27.004Z,30.65
2023-01-22T11:28:48.079Z,28.38
2023-01-22T11:32:22.244Z,31.15
2023-01-22T11:35:40.368Z,34.50
2023-01-22T11:38:58.133Z,31.15
2023-01-22T11:42:18.419Z,30.18
2023-01-22T11:45:56.893Z,33.73
2023-01-22T11:49:26.313Z,35.55
2023-01-22T11:52:49.327Z,34.58
2023-01-22T11:56:26.418Z,39.40
2023-01-22T12:00:06.061Z,34.43
2023-01-22T12:03:55.425Z,39.30
2023-01-22T12:07:29.424Z,40.00
2023-01-22T12:11:13.106Z,41.15
2023-01-22T12:14:41.492Z,35.38
2023-01-22T12:18:07.412Z,39.40
2023-01-22T12:21:27.369Z,37.93
2023-01-22T12:24:45.984Z,39.98
2023-01-22T12:28:03.851Z,55.08
2023-01-22T12:31:21.625Z,42.05
2023-01-22T12:34:38.959Z,38.43
2023-01-22T12:37:56.924Z,40.95
2023-01-22T12:41:28.764Z,39.63
2023-01-22T12:44:53.063Z,43.73
2023-01-22T12:48:11.771Z,40.35
2023-01-22T12:51:41.857Z,40.83
2023-01-22T12:55:01.319Z,39.35
2023-01-22T12:58:27.881Z,44.85
2023-01-22T13:01:43.864Z,41.85
2023-01-22T13:04:57.362Z,45.87
2023-01-22T13:08:25.456Z,46.10
2023-01-22T13:11:41.463Z,48.68
2023-01-22T13:14:55.316Z,49.15
2023-01-22T13:18:10.782Z,49.65
2023-01-22T13:21:29.691Z,42.88
2023-01-22T13:24:42.187Z,51.48
2023-01-22T13:27:54.431Z,47.30
2023-01-22T13:31:12.611Z,50.45
2023-01-22T13:34:24.966Z,52.23
2023-01-22T13:37:38.987Z,45.23
2023-01-22T13:40:57.840Z,45.18
2023-01-22T13:44:11.580Z,44.40
2023-01-22T13:47:39.770Z,44.38
2023-01-22T13:50:58.488Z,42.20
2023-01-22T13:54:12.734Z,47.00
2023-01-22T13:57:27.679Z,50.88
2023-01-22T14:00:41.927Z,44.08
2023-01-22T14:03:58.387Z,44.08
2023-01-22T14:07:13.310Z,33.23
2023-01-22T14:10:28.580Z,43.35
2023-01-22T14:13:50.954Z,45.28
2023-01-22T14:17:03.115Z,47.90
2023-01-22T14:20:18.035Z,59.60
2023-01-22T14:23:30.602Z,54.95
2023-01-22T14:26:42.871Z,51.00
2023-01-22T14:29:56.562Z,50.23
2023-01-22T14:33:10.496Z,47.48
2023-01-22T14:36:22.732Z,51.78
2023-01-22T14:39:37.680Z,51.28
2023-01-22T14:42:50.009Z,45.90
2023-01-22T14:46:02.096Z,50.98
2023-01-22T14:49:14.346Z,52.95
2023-01-22T14:52:26.396Z,54.50
2023-01-22T14:55:38.768Z,55.50
2023-01-22T14:58:51.224Z,54.55
2023-01-22T15:02:03.321Z,54.10
2023-01-22T15:05:17.891Z,48.65
2023-01-22T15:08:30.198Z,50.18
2023-01-22T15:11:42.214Z,54.00
2023-01-22T15:14:54.454Z,50.98
2023-01-22T15:18:06.664Z,53.08
2023-01-22T15:21:19.109Z,54.05
2023-01-22T15:24:31.242Z,59.30
2023-01-22T15:27:44.638Z,54.48
2023-01-22T15:30:57.622Z,88.97
2023-01-22T15:34:10.249Z,49.90
2023-01-22T15:37:23.948Z,49.33
2023-01-22T15:40:37.790Z,49.20
2023-01-22T15:43:50.967Z,44.43
2023-01-22T15:47:03.292Z,52.38
2023-01-22T15:50:20.489Z,51.83
2023-01-22T15:53:33.069Z,51.28
2023-01-22T15:56:46.101Z,47.10
2023-01-22T15:59:58.152Z,46.30
2023-01-22T16:03:11.988Z,45.85
2023-01-22T16:06:27.630Z,46.38
2023-01-22T16:09:39.926Z,51.43
2023-01-22T16:12:52.040Z,45.78
2023-01-22T16:16:09.729Z,47.53
2023-01-22T16:19:22.039Z,48.43
2023-01-22T16:22:34.312Z,53.68
2023-01-22T16:25:48.958Z,54.10
2023-01-22T16:29:03.921Z,47.70
2023-01-22T16:32:16.337Z,50.78
2023-01-22T16:35:28.551Z,49.85
2023-01-22T16:38:42.403Z,48.40
2023-01-22T16:41:57.261Z,47.13
2023-01-22T16:45:10.811Z,52.00
2023-01-22T16:48:22.899Z,47.80
2023-01-22T16:51:42.015Z,48.63
2023-01-22T16:54:54.395Z,48.48
2023-01-22T16:58:06.504Z,50.35
2023-01-22T17:01:20.572Z,53.73
2023-01-22T17:04:33.867Z,52.93
2023-01-22T17:07:46.200Z,54.78
2023-01-22T17:10:58.593Z,46.93
2023-01-22T17:14:10.999Z,54.25
2023-01-22T17:17:23.364Z,48.40
2023-01-22T17:20:35.727Z,50.90
2023-01-22T17:23:48.239Z,55.30
2023-01-22T17:27:02.708Z,49.83
2023-01-22T17:30:18.332Z,49.35
2023-01-22T17:33:30.851Z,52.25
2023-01-22T17:36:43.950Z,46.60
2023-01-22T17:39:56.254Z,45.83
2023-01-22T17:43:08.592Z,45.80
2023-01-22T17:46:23.900Z,42.23
2023-01-22T17:49:36.703Z,49.30
2023-01-22T17:52:48.857Z,47.68
2023-01-22T17:56:01.064Z,44.00
2023-01-22T17:59:14.603Z,47.03
2023-01-22T18:02:26.845Z,40.18
2023-01-22T18:05:40.288Z,44.30
2023-01-22T18:08:52.562Z,55.43
2023-01-22T18:12:05.100Z,49.48
2023-01-22T18:15:18.608Z,50.28
2023-01-22T18:18:31.009Z,49.90
2023-01-22T18:21:44.695Z,47.80
2023-01-22T18:24:58.504Z,42.95
2023-01-22T18:28:10.563Z,52.30
2023-01-22T18:31:26.015Z,49.45
2023-01-22T18:34:40.230Z,51.58
2023-01-22T18:37:54.500Z,46.95
2023-01-22T18:41:28.584Z,52.83
2023-01-22T18:44:41.749Z,43.88
2023-01-22T18:47:59.115Z,54.68
2023-01-22T18:51:13.634Z,53.23
2023-01-22T18:54:25.958Z,54.20
2023-01-22T19:01:22.798Z,56.30
2023-01-22T19:08:16.222Z,55.53
2023-01-22T19:11:36.683Z,55.50
2023-01-22T19:14:50.956Z,53.53
2023-01-22T19:18:03.386Z,58.88
2023-01-22T19:21:40.360Z,54.45
2023-01-22T19:24:52.794Z,62.25
2023-01-22T19:31:50.725Z,56.33
2023-01-22T19:35:03.643Z,60.58
2023-01-22T19:42:00.423Z,71.45
2023-01-22T19:45:14.443Z,63.55
2023-01-22T19:48:26.948Z,59.20
2023-01-22T19:51:39.866Z,60.45
2023-01-22T19:54:55.932Z,56.15
2023-01-22T19:58:08.979Z,53.57
2023-01-22T20:01:23.104Z,51.93
2023-01-22T20:04:45.775Z,60.63
2023-01-22T20:07:57.853Z,59.15
2023-01-22T20:11:12.146Z,60.83
2023-01-22T20:18:04.361Z,72.45
2023-01-22T20:21:17.474Z,67.28
2023-01-22T20:24:30.020Z,64.63
2023-01-22T20:27:42.419Z,59.73
2023-01-22T20:31:04.939Z,62.48
2023-01-22T20:34:17.240Z,64.60
2023-01-22T20:37:29.476Z,63.05
2023-01-22T20:40:45.748Z,59.05
2023-01-22T20:43:59.137Z,57.77
2023-01-22T20:47:11.260Z,61.88
2023-01-22T20:50:24.123Z,61.98
2023-01-22T20:53:37.052Z,66.93
2023-01-22T20:56:52.166Z,71.05
2023-01-22T21:00:04.818Z,66.65
2023-01-22T21:03:17.009Z,70.43
2023-01-22T21:06:30.369Z,68.35
2023-01-22T21:09:43.235Z,69.78
2023-01-22T21:12:55.264Z,75.08
2023-01-22T21:16:14.699Z,73.10
2023-01-22T21:19:29.774Z,70.13
2023-01-22T21:22:42.495Z,67.50
2023-01-22T21:25:54.477Z,77.00
2023-01-22T21:29:11.098Z,76.23
2023-01-22T21:32:23.394Z,78.50
2023-01-22T21:35:35.380Z,77.53
2023-01-22T21:38:48.438Z,71.88
2023-01-22T21:42:03.267Z,74.55
2023-01-22T21:45:31.733Z,73.95
2023-01-22T21:48:43.784Z,85.10
2023-01-22T21:51:58.883Z,76.90
2023-01-22T21:55:12.876Z,76.40
2023-01-22T21:58:25.013Z,67.63
2023-01-22T22:01:37.034Z,69.98
2023-01-22T22:04:50.844Z,70.63
2023-01-22T22:08:03.905Z,72.10
2023-01-22T22:11:17.404Z,77.60
2023-01-22T22:14:30.117Z,79.58
2023-01-22T22:32:47.646Z,77.38
2023-01-22T22:39:56.496Z,79.03
2023-01-22T22:54:30.491Z,74.75
2023-01-22T22:57:42.365Z,70.38
2023-01-22T23:05:16.244Z,51.38
2023-01-22T23:17:23.405Z,49.95
2023-01-22T23:38:49.059Z,42.08
2023-01-22T23:46:00.718Z,44.38
